Nova Uniao, Brazil
Current Conditions -  °F | °C
As of 8:00 PM on Sunday 25 Jan 2015 (Local Time) from SBLS Reporting Station
Rain Showers Rain Showers  
Wind Chill: 72°   Ceiling: 10000
Heat Index: 72°   Visibility: 6mi
Dew Point: 64°   Wind: 6mph
Humidity: 78%   Direction: 180°S
Pressure: 30.03"   Gusts: NA
Location:  19.69°S, 43.58°W
Report Text: SBLS 252200Z 18005KT 9999 VCSH FEW045 BKN100 22/18 Q1017
Loading
Personal Weather Stations






























Interactive Weather Map New forecast layout! Learn more

10-Day Weather Forecast

Advertisements
Track Severe Weather on mobile